sensor_id;sensor_type;location;lat;lon;timestamp;P1;durP1;ratioP1;P2;durP2;ratioP2
38865;SDS011;62686;48.984;8.394;2024-03-02T00:02:19;16.53;;;7.63;;
38865;SDS011;62686;48.984;8.394;2024-03-02T00:04:47;15.80;;;7.28;;
38865;SDS011;62686;48.984;8.394;2024-03-02T00:07:16;13.48;;;6.63;;
38865;SDS011;62686;48.984;8.394;2024-03-02T00:09:46;14.05;;;7.43;;
38865;SDS011;62686;48.984;8.394;2024-03-02T00:12:15;17.77;;;7.85;;
38865;SDS011;62686;48.984;8.394;2024-03-02T00:14:43;15.07;;;7.37;;
38865;SDS011;62686;48.984;8.394;2024-03-02T00:17:17;17.50;;;7.30;;
38865;SDS011;62686;48.984;8.394;2024-03-02T00:19:52;11.70;;;6.85;;
38865;SDS011;62686;48.984;8.394;2024-03-02T00:22:20;14.27;;;6.43;;
38865;SDS011;62686;48.984;8.394;2024-03-02T00:24:50;11.70;;;6.65;;
38865;SDS011;62686;48.984;8.394;2024-03-02T00:27:18;13.67;;;6.87;;
38865;SDS011;62686;48.984;8.394;2024-03-02T00:29:47;12.73;;;7.10;;
38865;SDS011;62686;48.984;8.394;2024-03-02T00:32:16;14.10;;;6.97;;
38865;SDS011;62686;48.984;8.394;2024-03-02T00:34:45;16.13;;;6.93;;
38865;SDS011;62686;48.984;8.394;2024-03-02T00:37:13;14.25;;;7.38;;
38865;SDS011;62686;48.984;8.394;2024-03-02T00:39:42;13.97;;;6.50;;
38865;SDS011;62686;48.984;8.394;2024-03-02T00:42:11;17.08;;;7.20;;
38865;SDS011;62686;48.984;8.394;2024-03-02T00:44:40;14.63;;;6.15;;
38865;SDS011;62686;48.984;8.394;2024-03-02T00:47:09;13.80;;;7.25;;
38865;SDS011;62686;48.984;8.394;2024-03-02T00:49:37;12.73;;;7.03;;
38865;SDS011;62686;48.984;8.394;2024-03-02T00:52:06;15.13;;;7.13;;
38865;SDS011;62686;48.984;8.394;2024-03-02T00:54:35;13.63;;;6.85;;
38865;SDS011;62686;48.984;8.394;2024-03-02T00:57:03;13.38;;;7.25;;
38865;SDS011;62686;48.984;8.394;2024-03-02T00:59:33;14.18;;;6.32;;
38865;SDS011;62686;48.984;8.394;2024-03-02T01:02:02;12.83;;;5.83;;
38865;SDS011;62686;48.984;8.394;2024-03-02T01:04:31;12.75;;;5.90;;
38865;SDS011;62686;48.984;8.394;2024-03-02T01:06:59;13.57;;;5.68;;
38865;SDS011;62686;48.984;8.394;2024-03-02T01:09:28;13.35;;;5.90;;
38865;SDS011;62686;48.984;8.394;2024-03-02T01:14:33;13.18;;;6.47;;
38865;SDS011;62686;48.984;8.394;2024-03-02T01:22:19;11.60;;;4.72;;
38865;SDS011;62686;48.984;8.394;2024-03-02T01:24:51;8.73;;;4.87;;
38865;SDS011;62686;48.984;8.394;2024-03-02T01:27:20;10.00;;;4.75;;
38865;SDS011;62686;48.984;8.394;2024-03-02T01:29:50;11.07;;;5.60;;
38865;SDS011;62686;48.984;8.394;2024-03-02T01:40:37;8.80;;;4.35;;
38865;SDS011;62686;48.984;8.394;2024-03-02T01:48:31;10.03;;;4.77;;
38865;SDS011;62686;48.984;8.394;2024-03-02T01:51:00;10.07;;;4.97;;
38865;SDS011;62686;48.984;8.394;2024-03-02T01:53:29;9.52;;;5.25;;
38865;SDS011;62686;48.984;8.394;2024-03-02T01:55:58;10.13;;;5.13;;
38865;SDS011;62686;48.984;8.394;2024-03-02T02:03:47;9.55;;;4.68;;
38865;SDS011;62686;48.984;8.394;2024-03-02T02:06:15;12.10;;;5.55;;
38865;SDS011;62686;48.984;8.394;2024-03-02T02:14:49;8.85;;;4.93;;
38865;SDS011;62686;48.984;8.394;2024-03-02T02:17:18;9.68;;;4.97;;
38865;SDS011;62686;48.984;8.394;2024-03-02T02:25:13;10.90;;;4.85;;
38865;SDS011;62686;48.984;8.394;2024-03-02T02:27:41;9.98;;;5.22;;
38865;SDS011;62686;48.984;8.394;2024-03-02T02:30:10;8.45;;;4.82;;
38865;SDS011;62686;48.984;8.394;2024-03-02T02:32:40;9.37;;;5.07;;
38865;SDS011;62686;48.984;8.394;2024-03-02T02:40:28;10.50;;;5.18;;
38865;SDS011;62686;48.984;8.394;2024-03-02T02:42:57;8.77;;;4.30;;
38865;SDS011;62686;48.984;8.394;2024-03-02T02:45:26;10.77;;;5.22;;
38865;SDS011;62686;48.984;8.394;2024-03-02T02:50:36;11.82;;;5.35;;
38865;SDS011;62686;48.984;8.394;2024-03-02T03:04:15;9.88;;;5.05;;
38865;SDS011;62686;48.984;8.394;2024-03-02T03:31:15;10.27;;;4.50;;
38865;SDS011;62686;48.984;8.394;2024-03-02T03:33:43;13.38;;;5.55;;
38865;SDS011;62686;48.984;8.394;2024-03-02T03:36:11;10.55;;;5.07;;
38865;SDS011;62686;48.984;8.394;2024-03-02T03:38:40;9.98;;;4.97;;
38865;SDS011;62686;48.984;8.394;2024-03-02T03:41:11;10.70;;;5.37;;
38865;SDS011;62686;48.984;8.394;2024-03-02T03:43:39;8.63;;;4.55;;
38865;SDS011;62686;48.984;8.394;2024-03-02T03:46:08;26.40;;;9.63;;
38865;SDS011;62686;48.984;8.394;2024-03-02T03:48:37;16.05;;;6.80;;
38865;SDS011;62686;48.984;8.394;2024-03-02T03:51:06;62.40;;;18.97;;
38865;SDS011;62686;48.984;8.394;2024-03-02T03:53:34;63.00;;;19.40;;
38865;SDS011;62686;48.984;8.394;2024-03-02T03:56:03;65.60;;;19.73;;
38865;SDS011;62686;48.984;8.394;2024-03-02T03:58:32;49.47;;;15.30;;
38865;SDS011;62686;48.984;8.394;2024-03-02T04:01:00;48.47;;;14.37;;
38865;SDS011;62686;48.984;8.394;2024-03-02T04:03:28;39.30;;;12.52;;
38865;SDS011;62686;48.984;8.394;2024-03-02T04:05:59;32.38;;;11.30;;
38865;SDS011;62686;48.984;8.394;2024-03-02T04:08:27;42.80;;;13.45;;
38865;SDS011;62686;48.984;8.394;2024-03-02T04:10:56;79.33;;;22.53;;
38865;SDS011;62686;48.984;8.394;2024-03-02T04:13:24;45.05;;;15.18;;
38865;SDS011;62686;48.984;8.394;2024-03-02T04:15:53;50.40;;;15.05;;
38865;SDS011;62686;48.984;8.394;2024-03-02T04:18:21;31.38;;;11.57;;
38865;SDS011;62686;48.984;8.394;2024-03-02T04:20:49;14.50;;;7.07;;
38865;SDS011;62686;48.984;8.394;2024-03-02T04:23:20;24.65;;;13.20;;
38865;SDS011;62686;48.984;8.394;2024-03-02T04:25:48;22.33;;;12.88;;
38865;SDS011;62686;48.984;8.394;2024-03-02T04:28:17;31.05;;;17.52;;
38865;SDS011;62686;48.984;8.394;2024-03-02T04:30:45;18.80;;;11.07;;
38865;SDS011;62686;48.984;8.394;2024-03-02T04:33:13;27.45;;;15.88;;
38865;SDS011;62686;48.984;8.394;2024-03-02T04:35:42;32.60;;;17.75;;
38865;SDS011;62686;48.984;8.394;2024-03-02T04:38:10;25.90;;;14.30;;
38865;SDS011;62686;48.984;8.394;2024-03-02T04:40:40;20.90;;;11.83;;
38865;SDS011;62686;48.984;8.394;2024-03-02T04:43:08;19.23;;;10.05;;
38865;SDS011;62686;48.984;8.394;2024-03-02T04:45:41;17.80;;;9.40;;
38865;SDS011;62686;48.984;8.394;2024-03-02T04:48:10;29.70;;;15.15;;
38865;SDS011;62686;48.984;8.394;2024-03-02T04:50:39;30.70;;;16.03;;
38865;SDS011;62686;48.984;8.394;2024-03-02T04:53:07;26.83;;;15.52;;
38865;SDS011;62686;48.984;8.394;2024-03-02T04:55:36;39.03;;;21.40;;
38865;SDS011;62686;48.984;8.394;2024-03-02T04:58:19;25.60;;;13.48;;
38865;SDS011;62686;48.984;8.394;2024-03-02T05:00:48;14.13;;;6.97;;
38865;SDS011;62686;48.984;8.394;2024-03-02T05:03:16;9.82;;;5.10;;
38865;SDS011;62686;48.984;8.394;2024-03-02T05:05:44;10.27;;;5.28;;
38865;SDS011;62686;48.984;8.394;2024-03-02T05:08:13;11.40;;;6.25;;
38865;SDS011;62686;48.984;8.394;2024-03-02T05:10:43;20.60;;;10.20;;
38865;SDS011;62686;48.984;8.394;2024-03-02T05:13:12;27.48;;;14.30;;
38865;SDS011;62686;48.984;8.394;2024-03-02T05:15:40;26.15;;;13.90;;
38865;SDS011;62686;48.984;8.394;2024-03-02T05:18:09;14.15;;;7.60;;
38865;SDS011;62686;48.984;8.394;2024-03-02T05:20:38;17.43;;;8.63;;
38865;SDS011;62686;48.984;8.394;2024-03-02T05:23:06;18.42;;;8.57;;
38865;SDS011;62686;48.984;8.394;2024-03-02T05:25:34;18.30;;;9.45;;
38865;SDS011;62686;48.984;8.394;2024-03-02T05:28:03;18.25;;;9.15;;
38865;SDS011;62686;48.984;8.394;2024-03-02T05:30:32;17.60;;;8.93;;
38865;SDS011;62686;48.984;8.394;2024-03-02T05:33:02;16.58;;;8.00;;
38865;SDS011;62686;48.984;8.394;2024-03-02T05:35:31;17.88;;;8.90;;
38865;SDS011;62686;48.984;8.394;2024-03-02T05:38:00;14.02;;;7.55;;
38865;SDS011;62686;48.984;8.394;2024-03-02T05:40:31;17.55;;;8.18;;
38865;SDS011;62686;48.984;8.394;2024-03-02T05:43:02;15.80;;;7.15;;
38865;SDS011;62686;48.984;8.394;2024-03-02T05:45:32;16.10;;;7.22;;
38865;SDS011;62686;48.984;8.394;2024-03-02T05:48:02;15.13;;;7.37;;
38865;SDS011;62686;48.984;8.394;2024-03-02T05:50:31;13.85;;;6.82;;
38865;SDS011;62686;48.984;8.394;2024-03-02T05:53:02;17.67;;;7.93;;
38865;SDS011;62686;48.984;8.394;2024-03-02T05:55:31;14.13;;;7.55;;
38865;SDS011;62686;48.984;8.394;2024-03-02T05:58:01;12.73;;;7.07;;
38865;SDS011;62686;48.984;8.394;2024-03-02T06:00:46;13.60;;;6.13;;
38865;SDS011;62686;48.984;8.394;2024-03-02T06:03:19;13.07;;;6.97;;
38865;SDS011;62686;48.984;8.394;2024-03-02T06:05:47;12.75;;;6.90;;
38865;SDS011;62686;48.984;8.394;2024-03-02T06:08:18;12.85;;;6.85;;
38865;SDS011;62686;48.984;8.394;2024-03-02T06:10:46;15.63;;;7.38;;
38865;SDS011;62686;48.984;8.394;2024-03-02T06:13:15;16.08;;;8.45;;
38865;SDS011;62686;48.984;8.394;2024-03-02T06:15:45;19.10;;;9.03;;
38865;SDS011;62686;48.984;8.394;2024-03-02T06:18:16;16.35;;;8.20;;
38865;SDS011;62686;48.984;8.394;2024-03-02T06:20:47;14.77;;;7.60;;
38865;SDS011;62686;48.984;8.394;2024-03-02T06:23:16;19.80;;;7.95;;
38865;SDS011;62686;48.984;8.394;2024-03-02T06:25:45;15.40;;;7.77;;
38865;SDS011;62686;48.984;8.394;2024-03-02T06:28:13;14.30;;;7.07;;
38865;SDS011;62686;48.984;8.394;2024-03-02T06:30:42;17.60;;;7.38;;
38865;SDS011;62686;48.984;8.394;2024-03-02T06:33:11;12.52;;;6.80;;
38865;SDS011;62686;48.984;8.394;2024-03-02T06:35:41;13.27;;;5.53;;
38865;SDS011;62686;48.984;8.394;2024-03-02T06:38:09;10.93;;;5.95;;
38865;SDS011;62686;48.984;8.394;2024-03-02T06:40:38;13.30;;;6.40;;
38865;SDS011;62686;48.984;8.394;2024-03-02T06:43:07;16.23;;;5.57;;
38865;SDS011;62686;48.984;8.394;2024-03-02T06:45:35;11.73;;;6.13;;
38865;SDS011;62686;48.984;8.394;2024-03-02T06:48:04;12.90;;;5.80;;
38865;SDS011;62686;48.984;8.394;2024-03-02T06:50:34;10.65;;;6.10;;
38865;SDS011;62686;48.984;8.394;2024-03-02T06:53:03;15.52;;;6.55;;
38865;SDS011;62686;48.984;8.394;2024-03-02T06:55:32;11.77;;;6.00;;
38865;SDS011;62686;48.984;8.394;2024-03-02T06:58:00;10.75;;;5.40;;
38865;SDS011;62686;48.984;8.394;2024-03-02T07:00:29;10.50;;;5.45;;
38865;SDS011;62686;48.984;8.394;2024-03-02T07:02:58;10.75;;;5.13;;
38865;SDS011;62686;48.984;8.394;2024-03-02T07:05:26;9.47;;;4.90;;
38865;SDS011;62686;48.984;8.394;2024-03-02T07:07:55;9.88;;;5.28;;
38865;SDS011;62686;48.984;8.394;2024-03-02T07:10:24;10.98;;;4.88;;
38865;SDS011;62686;48.984;8.394;2024-03-02T07:12:53;8.90;;;4.72;;
38865;SDS011;62686;48.984;8.394;2024-03-02T07:17:57;8.65;;;4.63;;
38865;SDS011;62686;48.984;8.394;2024-03-02T07:20:29;9.65;;;5.32;;
38865;SDS011;62686;48.984;8.394;2024-03-02T07:22:58;6.97;;;4.35;;
38865;SDS011;62686;48.984;8.394;2024-03-02T07:25:27;8.87;;;4.97;;
38865;SDS011;62686;48.984;8.394;2024-03-02T07:27:59;8.02;;;4.57;;
38865;SDS011;62686;48.984;8.394;2024-03-02T07:30:27;10.18;;;5.63;;
38865;SDS011;62686;48.984;8.394;2024-03-02T07:32:56;8.65;;;4.78;;
38865;SDS011;62686;48.984;8.394;2024-03-02T07:35:24;11.90;;;5.95;;
38865;SDS011;62686;48.984;8.394;2024-03-02T07:37:54;10.57;;;5.93;;
38865;SDS011;62686;48.984;8.394;2024-03-02T07:48:30;9.10;;;5.50;;
38865;SDS011;62686;48.984;8.394;2024-03-02T07:50:59;10.80;;;6.33;;
38865;SDS011;62686;48.984;8.394;2024-03-02T07:53:28;12.52;;;6.95;;
38865;SDS011;62686;48.984;8.394;2024-03-02T07:55:57;11.68;;;6.80;;
38865;SDS011;62686;48.984;8.394;2024-03-02T07:58:28;13.77;;;7.15;;
38865;SDS011;62686;48.984;8.394;2024-03-02T08:01:00;12.07;;;7.40;;
38865;SDS011;62686;48.984;8.394;2024-03-02T08:03:28;13.17;;;6.97;;
38865;SDS011;62686;48.984;8.394;2024-03-02T08:06:00;12.93;;;7.18;;
38865;SDS011;62686;48.984;8.394;2024-03-02T08:08:29;11.80;;;7.55;;
38865;SDS011;62686;48.984;8.394;2024-03-02T08:10:58;11.63;;;6.78;;
38865;SDS011;62686;48.984;8.394;2024-03-02T08:13:26;10.95;;;6.28;;
38865;SDS011;62686;48.984;8.394;2024-03-02T08:15:56;9.43;;;5.57;;
38865;SDS011;62686;48.984;8.394;2024-03-02T08:18:25;9.68;;;5.78;;
38865;SDS011;62686;48.984;8.394;2024-03-02T08:20:54;9.10;;;5.78;;
38865;SDS011;62686;48.984;8.394;2024-03-02T08:23:23;8.50;;;6.00;;
38865;SDS011;62686;48.984;8.394;2024-03-02T08:25:51;9.55;;;5.88;;
38865;SDS011;62686;48.984;8.394;2024-03-02T08:28:20;11.70;;;6.37;;
38865;SDS011;62686;48.984;8.394;2024-03-02T08:30:48;11.55;;;6.43;;
38865;SDS011;62686;48.984;8.394;2024-03-02T08:33:16;10.63;;;6.75;;
38865;SDS011;62686;48.984;8.394;2024-03-02T08:35:45;9.02;;;6.20;;
38865;SDS011;62686;48.984;8.394;2024-03-02T08:38:15;10.65;;;6.38;;
38865;SDS011;62686;48.984;8.394;2024-03-02T08:40:43;12.53;;;6.80;;
38865;SDS011;62686;48.984;8.394;2024-03-02T08:43:12;10.85;;;6.47;;
38865;SDS011;62686;48.984;8.394;2024-03-02T08:45:41;9.07;;;5.68;;
38865;SDS011;62686;48.984;8.394;2024-03-02T08:48:10;12.25;;;7.32;;
38865;SDS011;62686;48.984;8.394;2024-03-02T08:50:38;9.70;;;6.63;;
38865;SDS011;62686;48.984;8.394;2024-03-02T08:53:07;9.43;;;5.87;;
38865;SDS011;62686;48.984;8.394;2024-03-02T08:55:36;8.25;;;5.47;;
38865;SDS011;62686;48.984;8.394;2024-03-02T08:58:05;6.88;;;5.00;;
38865;SDS011;62686;48.984;8.394;2024-03-02T09:00:34;7.47;;;4.22;;
38865;SDS011;62686;48.984;8.394;2024-03-02T09:03:03;5.53;;;3.13;;
38865;SDS011;62686;48.984;8.394;2024-03-02T09:05:31;5.47;;;3.27;;
38865;SDS011;62686;48.984;8.394;2024-03-02T09:08:00;4.43;;;2.85;;
38865;SDS011;62686;48.984;8.394;2024-03-02T09:10:30;4.65;;;3.05;;
38865;SDS011;62686;48.984;8.394;2024-03-02T09:13:00;3.40;;;2.60;;
38865;SDS011;62686;48.984;8.394;2024-03-02T09:15:29;3.55;;;2.70;;
38865;SDS011;62686;48.984;8.394;2024-03-02T09:17:58;4.13;;;2.73;;
38865;SDS011;62686;48.984;8.394;2024-03-02T09:39:22;2.63;;;2.35;;
38865;SDS011;62686;48.984;8.394;2024-03-02T09:41:53;4.38;;;2.50;;
38865;SDS011;62686;48.984;8.394;2024-03-02T10:13:23;5.13;;;3.00;;
38865;SDS011;62686;48.984;8.394;2024-03-02T10:15:54;3.72;;;2.60;;
38865;SDS011;62686;48.984;8.394;2024-03-02T10:18:26;5.53;;;2.85;;
38865;SDS011;62686;48.984;8.394;2024-03-02T10:28:55;2.63;;;1.80;;
38865;SDS011;62686;48.984;8.394;2024-03-02T10:31:27;2.65;;;2.03;;
38865;SDS011;62686;48.984;8.394;2024-03-02T10:47:21;2.30;;;2.03;;
38865;SDS011;62686;48.984;8.394;2024-03-02T10:49:50;2.85;;;2.22;;
38865;SDS011;62686;48.984;8.394;2024-03-02T10:57:40;2.83;;;2.15;;
38865;SDS011;62686;48.984;8.394;2024-03-02T11:00:14;2.20;;;1.60;;
38865;SDS011;62686;48.984;8.394;2024-03-02T11:02:46;1.80;;;1.70;;
38865;SDS011;62686;48.984;8.394;2024-03-02T11:10:45;1.90;;;1.60;;
38865;SDS011;62686;48.984;8.394;2024-03-02T11:15:55;2.95;;;2.10;;
38865;SDS011;62686;48.984;8.394;2024-03-02T11:29:10;2.03;;;1.83;;
38865;SDS011;62686;48.984;8.394;2024-03-02T11:34:48;1.80;;;1.70;;
38865;SDS011;62686;48.984;8.394;2024-03-02T11:37:18;2.17;;;1.60;;
38865;SDS011;62686;48.984;8.394;2024-03-02T11:50:30;2.60;;;1.83;;
38865;SDS011;62686;48.984;8.394;2024-03-02T11:55:37;1.95;;;1.25;;
38865;SDS011;62686;48.984;8.394;2024-03-02T11:58:07;2.03;;;1.37;;
38865;SDS011;62686;48.984;8.394;2024-03-02T12:00:36;1.63;;;1.48;;
38865;SDS011;62686;48.984;8.394;2024-03-02T12:17:13;1.48;;;1.38;;
38865;SDS011;62686;48.984;8.394;2024-03-02T12:22:23;1.67;;;1.40;;
38865;SDS011;62686;48.984;8.394;2024-03-02T12:45:34;3.47;;;1.77;;
38865;SDS011;62686;48.984;8.394;2024-03-02T12:48:04;1.58;;;1.45;;
38865;SDS011;62686;48.984;8.394;2024-03-02T12:50:33;1.60;;;1.50;;
38865;SDS011;62686;48.984;8.394;2024-03-02T12:53:01;2.20;;;1.47;;
38865;SDS011;62686;48.984;8.394;2024-03-02T12:55:30;2.17;;;1.98;;
38865;SDS011;62686;48.984;8.394;2024-03-02T12:58:00;2.05;;;1.95;;
38865;SDS011;62686;48.984;8.394;2024-03-02T13:00:29;3.70;;;2.20;;
38865;SDS011;62686;48.984;8.394;2024-03-02T13:03:03;2.08;;;1.60;;
38865;SDS011;62686;48.984;8.394;2024-03-02T13:05:31;2.93;;;1.97;;
38865;SDS011;62686;48.984;8.394;2024-03-02T13:08:00;2.17;;;1.95;;
38865;SDS011;62686;48.984;8.394;2024-03-02T13:10:29;2.15;;;1.95;;
38865;SDS011;62686;48.984;8.394;2024-03-02T13:12:58;1.70;;;1.60;;
38865;SDS011;62686;48.984;8.394;2024-03-02T13:15:28;2.95;;;2.03;;
38865;SDS011;62686;48.984;8.394;2024-03-02T13:17:58;2.30;;;1.60;;
38865;SDS011;62686;48.984;8.394;2024-03-02T13:20:31;3.15;;;1.45;;
38865;SDS011;62686;48.984;8.394;2024-03-02T13:22:59;2.10;;;1.90;;
38865;SDS011;62686;48.984;8.394;2024-03-02T13:25:28;2.30;;;2.10;;
38865;SDS011;62686;48.984;8.394;2024-03-02T13:27:58;4.18;;;2.10;;
38865;SDS011;62686;48.984;8.394;2024-03-02T13:30:27;2.07;;;1.90;;
38865;SDS011;62686;48.984;8.394;2024-03-02T13:32:55;2.67;;;2.10;;
38865;SDS011;62686;48.984;8.394;2024-03-02T13:35:24;2.10;;;1.65;;
38865;SDS011;62686;48.984;8.394;2024-03-02T13:37:54;2.15;;;1.95;;
38865;SDS011;62686;48.984;8.394;2024-03-02T13:40:22;2.35;;;2.15;;
38865;SDS011;62686;48.984;8.394;2024-03-02T13:42:50;2.23;;;1.87;;
38865;SDS011;62686;48.984;8.394;2024-03-02T13:45:20;2.65;;;2.42;;
38865;SDS011;62686;48.984;8.394;2024-03-02T13:47:48;2.70;;;2.10;;
38865;SDS011;62686;48.984;8.394;2024-03-02T13:50:17;2.03;;;1.83;;
38865;SDS011;62686;48.984;8.394;2024-03-02T13:52:46;2.10;;;1.90;;
38865;SDS011;62686;48.984;8.394;2024-03-02T13:55:16;1.80;;;1.60;;
38865;SDS011;62686;48.984;8.394;2024-03-02T13:57:44;4.47;;;1.75;;
38865;SDS011;62686;48.984;8.394;2024-03-02T14:00:15;2.22;;;1.60;;
38865;SDS011;62686;48.984;8.394;2024-03-02T14:02:45;2.88;;;1.90;;
38865;SDS011;62686;48.984;8.394;2024-03-02T14:05:16;2.22;;;1.90;;
38865;SDS011;62686;48.984;8.394;2024-03-02T14:13:10;2.35;;;1.85;;
38865;SDS011;62686;48.984;8.394;2024-03-02T14:18:22;1.92;;;1.73;;
38865;SDS011;62686;48.984;8.394;2024-03-02T14:20:51;2.00;;;1.63;;
38865;SDS011;62686;48.984;8.394;2024-03-02T17:50:25;7.68;;;5.28;;
38865;SDS011;62686;48.984;8.394;2024-03-02T17:52:54;7.63;;;5.20;;
38865;SDS011;62686;48.984;8.394;2024-03-02T17:55:22;7.80;;;4.72;;
38865;SDS011;62686;48.984;8.394;2024-03-02T17:57:51;8.20;;;4.68;;
38865;SDS011;62686;48.984;8.394;2024-03-02T18:00:19;5.35;;;3.33;;
38865;SDS011;62686;48.984;8.394;2024-03-02T18:02:48;4.80;;;3.00;;
38865;SDS011;62686;48.984;8.394;2024-03-02T18:05:16;4.57;;;3.60;;
38865;SDS011;62686;48.984;8.394;2024-03-02T18:07:46;5.47;;;3.50;;
38865;SDS011;62686;48.984;8.394;2024-03-02T18:10:14;5.63;;;3.70;;
38865;SDS011;62686;48.984;8.394;2024-03-02T18:12:43;12.95;;;6.85;;
38865;SDS011;62686;48.984;8.394;2024-03-02T18:15:12;5.50;;;4.43;;
38865;SDS011;62686;48.984;8.394;2024-03-02T18:17:41;4.97;;;3.50;;
38865;SDS011;62686;48.984;8.394;2024-03-02T18:20:09;8.88;;;3.63;;
38865;SDS011;62686;48.984;8.394;2024-03-02T18:22:38;5.90;;;3.55;;
38865;SDS011;62686;48.984;8.394;2024-03-02T18:25:08;5.13;;;3.35;;
38865;SDS011;62686;48.984;8.394;2024-03-02T18:27:37;3.67;;;2.60;;
38865;SDS011;62686;48.984;8.394;2024-03-02T18:30:06;3.80;;;2.67;;
38865;SDS011;62686;48.984;8.394;2024-03-02T18:32:37;4.22;;;2.35;;
38865;SDS011;62686;48.984;8.394;2024-03-02T18:35:07;4.22;;;2.70;;
38865;SDS011;62686;48.984;8.394;2024-03-02T18:37:36;4.30;;;2.47;;
38865;SDS011;62686;48.984;8.394;2024-03-02T18:40:05;3.28;;;2.40;;
38865;SDS011;62686;48.984;8.394;2024-03-02T18:42:38;3.60;;;2.57;;
38865;SDS011;62686;48.984;8.394;2024-03-02T18:45:07;3.78;;;2.45;;
38865;SDS011;62686;48.984;8.394;2024-03-02T18:47:36;3.80;;;3.03;;
38865;SDS011;62686;48.984;8.394;2024-03-02T18:50:05;4.28;;;2.22;;
38865;SDS011;62686;48.984;8.394;2024-03-02T18:52:35;3.65;;;2.35;;
38865;SDS011;62686;48.984;8.394;2024-03-02T18:55:04;4.03;;;2.83;;
38865;SDS011;62686;48.984;8.394;2024-03-02T18:57:34;3.50;;;2.55;;
38865;SDS011;62686;48.984;8.394;2024-03-02T19:05:21;3.28;;;2.78;;
38865;SDS011;62686;48.984;8.394;2024-03-02T19:07:49;3.97;;;2.83;;
38865;SDS011;62686;48.984;8.394;2024-03-02T19:12:59;3.40;;;2.67;;
38865;SDS011;62686;48.984;8.394;2024-03-02T19:15:28;5.43;;;2.90;;
38865;SDS011;62686;48.984;8.394;2024-03-02T19:17:56;3.78;;;2.95;;
38865;SDS011;62686;48.984;8.394;2024-03-02T19:20:26;6.73;;;3.40;;
38865;SDS011;62686;48.984;8.394;2024-03-02T19:22:54;3.63;;;2.60;;
38865;SDS011;62686;48.984;8.394;2024-03-02T19:25:23;4.82;;;3.40;;
38865;SDS011;62686;48.984;8.394;2024-03-02T19:27:51;4.95;;;2.92;;
38865;SDS011;62686;48.984;8.394;2024-03-02T19:30:21;3.78;;;2.70;;
38865;SDS011;62686;48.984;8.394;2024-03-02T19:32:51;5.40;;;2.90;;
38865;SDS011;62686;48.984;8.394;2024-03-02T19:35:19;4.80;;;3.33;;
38865;SDS011;62686;48.984;8.394;2024-03-02T19:37:49;4.15;;;3.10;;
38865;SDS011;62686;48.984;8.394;2024-03-02T19:40:18;4.53;;;3.55;;
38865;SDS011;62686;48.984;8.394;2024-03-02T19:42:48;5.40;;;3.70;;
38865;SDS011;62686;48.984;8.394;2024-03-02T19:45:16;5.50;;;3.27;;
38865;SDS011;62686;48.984;8.394;2024-03-02T19:47:45;5.20;;;3.53;;
38865;SDS011;62686;48.984;8.394;2024-03-02T19:50:13;4.78;;;3.47;;
38865;SDS011;62686;48.984;8.394;2024-03-02T19:58:11;5.87;;;3.83;;
38865;SDS011;62686;48.984;8.394;2024-03-02T20:00:39;6.85;;;3.70;;
38865;SDS011;62686;48.984;8.394;2024-03-02T20:03:08;7.78;;;4.93;;
38865;SDS011;62686;48.984;8.394;2024-03-02T20:05:37;5.93;;;4.20;;
38865;SDS011;62686;48.984;8.394;2024-03-02T20:08:06;6.78;;;3.97;;
38865;SDS011;62686;48.984;8.394;2024-03-02T20:10:35;6.43;;;5.07;;
38865;SDS011;62686;48.984;8.394;2024-03-02T20:13:06;6.90;;;4.43;;
38865;SDS011;62686;48.984;8.394;2024-03-02T20:15:36;9.10;;;5.80;;
38865;SDS011;62686;48.984;8.394;2024-03-02T20:18:06;8.50;;;5.03;;
38865;SDS011;62686;48.984;8.394;2024-03-02T20:20:35;8.85;;;5.82;;
38865;SDS011;62686;48.984;8.394;2024-03-02T20:28:20;8.65;;;5.82;;
38865;SDS011;62686;48.984;8.394;2024-03-02T20:33:35;11.07;;;6.50;;
38865;SDS011;62686;48.984;8.394;2024-03-02T20:36:11;10.53;;;6.17;;
38865;SDS011;62686;48.984;8.394;2024-03-02T20:38:42;12.20;;;7.07;;
38865;SDS011;62686;48.984;8.394;2024-03-02T20:41:15;15.73;;;9.55;;
38865;SDS011;62686;48.984;8.394;2024-03-02T20:43:46;15.85;;;7.45;;
38865;SDS011;62686;48.984;8.394;2024-03-02T20:46:17;12.02;;;7.30;;
38865;SDS011;62686;48.984;8.394;2024-03-02T20:48:53;17.17;;;7.90;;
38865;SDS011;62686;48.984;8.394;2024-03-02T20:51:25;12.88;;;6.93;;
38865;SDS011;62686;48.984;8.394;2024-03-02T20:53:59;11.05;;;7.50;;
38865;SDS011;62686;48.984;8.394;2024-03-02T20:56:34;13.63;;;6.72;;
38865;SDS011;62686;48.984;8.394;2024-03-02T20:59:10;14.63;;;7.82;;
38865;SDS011;62686;48.984;8.394;2024-03-02T21:01:41;13.57;;;7.43;;
38865;SDS011;62686;48.984;8.394;2024-03-02T21:04:15;15.18;;;8.25;;
38865;SDS011;62686;48.984;8.394;2024-03-02T21:06:49;17.35;;;9.77;;
38865;SDS011;62686;48.984;8.394;2024-03-02T21:09:31;18.33;;;9.20;;
38865;SDS011;62686;48.984;8.394;2024-03-02T21:20:13;16.00;;;9.15;;
38865;SDS011;62686;48.984;8.394;2024-03-02T21:22:44;15.00;;;7.32;;
38865;SDS011;62686;48.984;8.394;2024-03-02T21:25:19;20.25;;;10.88;;
38865;SDS011;62686;48.984;8.394;2024-03-02T21:27:47;11.37;;;6.80;;
38865;SDS011;62686;48.984;8.394;2024-03-02T21:35:43;18.25;;;9.23;;
38865;SDS011;62686;48.984;8.394;2024-03-02T21:38:12;16.17;;;8.82;;
38865;SDS011;62686;48.984;8.394;2024-03-02T21:40:41;14.17;;;7.83;;
38865;SDS011;62686;48.984;8.394;2024-03-02T21:43:10;18.25;;;8.95;;
38865;SDS011;62686;48.984;8.394;2024-03-02T21:45:44;16.65;;;8.82;;
38865;SDS011;62686;48.984;8.394;2024-03-02T21:48:16;20.48;;;9.73;;
38865;SDS011;62686;48.984;8.394;2024-03-02T21:50:54;16.70;;;8.82;;
38865;SDS011;62686;48.984;8.394;2024-03-02T21:53:24;16.67;;;8.40;;
38865;SDS011;62686;48.984;8.394;2024-03-02T21:55:58;14.45;;;8.02;;
38865;SDS011;62686;48.984;8.394;2024-03-02T21:58:28;15.52;;;8.93;;
38865;SDS011;62686;48.984;8.394;2024-03-02T22:00:59;17.70;;;9.15;;
38865;SDS011;62686;48.984;8.394;2024-03-02T22:03:28;18.08;;;8.82;;
38865;SDS011;62686;48.984;8.394;2024-03-02T22:06:03;18.63;;;8.63;;
38865;SDS011;62686;48.984;8.394;2024-03-02T22:08:32;18.90;;;8.98;;
38865;SDS011;62686;48.984;8.394;2024-03-02T22:11:08;17.10;;;9.27;;
38865;SDS011;62686;48.984;8.394;2024-03-02T22:13:38;18.80;;;9.20;;
38865;SDS011;62686;48.984;8.394;2024-03-02T22:16:14;17.23;;;8.50;;
38865;SDS011;62686;48.984;8.394;2024-03-02T22:18:51;19.33;;;9.20;;
38865;SDS011;62686;48.984;8.394;2024-03-02T22:21:22;18.27;;;9.77;;
38865;SDS011;62686;48.984;8.394;2024-03-02T22:23:51;17.75;;;9.30;;
38865;SDS011;62686;48.984;8.394;2024-03-02T22:26:22;18.25;;;9.18;;
38865;SDS011;62686;48.984;8.394;2024-03-02T22:28:51;20.88;;;9.30;;
38865;SDS011;62686;48.984;8.394;2024-03-02T22:34:00;22.30;;;10.82;;
38865;SDS011;62686;48.984;8.394;2024-03-02T22:39:11;23.60;;;9.60;;
38865;SDS011;62686;48.984;8.394;2024-03-02T22:41:39;19.23;;;10.57;;
38865;SDS011;62686;48.984;8.394;2024-03-02T22:59:36;21.37;;;10.80;;
38865;SDS011;62686;48.984;8.394;2024-03-02T23:02:07;21.30;;;11.27;;
38865;SDS011;62686;48.984;8.394;2024-03-02T23:04:42;23.35;;;11.63;;
38865;SDS011;62686;48.984;8.394;2024-03-02T23:07:13;21.38;;;10.73;;
38865;SDS011;62686;48.984;8.394;2024-03-02T23:09:46;23.35;;;10.70;;
38865;SDS011;62686;48.984;8.394;2024-03-02T23:14:59;26.58;;;12.65;;
38865;SDS011;62686;48.984;8.394;2024-03-02T23:17:28;26.20;;;12.35;;
38865;SDS011;62686;48.984;8.394;2024-03-02T23:20:03;25.05;;;11.88;;
38865;SDS011;62686;48.984;8.394;2024-03-02T23:22:59;33.33;;;18.10;;
38865;SDS011;62686;48.984;8.394;2024-03-02T23:28:13;28.73;;;13.05;;
38865;SDS011;62686;48.984;8.394;2024-03-02T23:30:44;24.83;;;12.90;;